Terminal Aerodrome Forecast
Issued by NWS

Home | Current Version | Previous Version | Text Only | Print | Product List | Glossary On
Versions: 1 2 3 4 5 6 7 8 9 10 11 12 13 14 15
000
FTUS42 KILM 301700
TAFCRE
TAF
KCRE 301730Z 3018/3118 14009KT P6SM SCT020 SCT035 SCT100
     FM310200 VRB03KT P6SM SCT012
     FM310800 VRB03KT P6SM BKN010
     FM311100 18005KT 5SM -SHRA SCT008 BKN015 BKN030
     FM311400 18008KT P6SM FEW030 BKN100=

USA.gov is the U.S. government's official web portal to all federal, state and local government web resources and services.